Time;durP1;ratioP1;P1;durP2;ratioP2;P2;SDS_P1;SDS_P2;PMS_P1;PMS_P2;Temp;Humidity;BMP_temperature;BMP_pressure;BME280_temperature;BME280_humidity;BME280_pressure;Samples;Min_cycle;Max_cycle;Signal;HPM_P1;HPM_P2
2021/04/03 00:00:47;;;;;;;10.50;1.90;;;6.10;99.90;;;;;;5068974;28;20074;-70
2021/04/03 00:03:14;;;;;;;20.45;2.55;;;6.10;99.90;;;;;;5069167;28;20685;-72
2021/04/03 00:05:41;;;;;;;14.23;3.05;;;6.10;99.90;;;;;;5069118;28;20096;-71
2021/04/03 00:08:07;;;;;;;20.65;3.22;;;6.10;99.90;;;;;;5069655;28;20023;-73
2021/04/03 00:10:44;;;;;;;12.43;2.60;;;6.10;99.90;;;;;;5069004;28;20044;-72
2021/04/03 00:13:10;;;;;;;17.08;2.88;;;6.10;99.90;;;;;;5069233;28;20056;-71
2021/04/03 00:15:36;;;;;;;22.48;3.13;;;6.10;99.90;;;;;;5070224;28;20048;-72
2021/04/03 00:18:02;;;;;;;15.02;2.38;;;6.10;99.90;;;;;;5069655;28;20024;-72
2021/04/03 00:20:30;;;;;;;18.45;3.47;;;6.10;99.90;;;;;;5073362;28;20067;-71
2021/04/03 00:22:57;;;;;;;17.15;2.38;;;6.10;99.90;;;;;;5072996;28;20031;-71
2021/04/03 00:25:23;;;;;;;16.73;2.08;;;6.10;99.90;;;;;;5070631;28;20041;-72
2021/04/03 00:27:48;;;;;;;14.57;2.75;;;6.10;99.90;;;;;;5071709;28;20128;-70
2021/04/03 00:30:15;;;;;;;25.42;2.53;;;6.10;99.90;;;;;;5083974;28;20078;-74
2021/04/03 00:32:43;;;;;;;22.52;2.47;;;6.10;99.90;;;;;;5089889;28;20351;-72
2021/04/03 00:35:19;;;;;;;15.18;2.28;;;6.10;99.90;;;;;;5091865;28;20037;-71
2021/04/03 00:37:46;;;;;;;9.55;3.08;;;6.10;99.90;;;;;;5094152;28;20028;-72
2021/04/03 00:40:34;;;;;;;26.42;2.28;;;6.00;99.90;;;;;;5093267;28;20092;-72
2021/04/03 00:43:03;;;;;;;17.73;2.58;;;6.00;99.90;;;;;;5092743;28;20012;-71
2021/04/03 00:45:28;;;;;;;17.15;2.47;;;6.00;99.90;;;;;;5092846;28;20044;-70
2021/04/03 00:47:55;;;;;;;16.70;2.50;;;5.90;99.90;;;;;;5087656;28;20032;-71
2021/04/03 00:50:34;;;;;;;13.80;1.83;;;5.90;99.90;;;;;;5074085;28;20032;-72
2021/04/03 00:53:00;;;;;;;21.10;2.60;;;5.90;99.90;;;;;;5071303;28;20052;-71
2021/04/03 00:55:26;;;;;;;14.40;2.53;;;5.90;99.90;;;;;;5069188;28;20071;-70
2021/04/03 00:57:53;;;;;;;25.98;3.65;;;5.90;99.90;;;;;;5075131;28;20012;-71
2021/04/03 01:00:19;;;;;;;18.13;2.95;;;5.90;99.90;;;;;;5074250;28;20027;-73
2021/04/03 01:02:45;;;;;;;17.40;2.42;;;5.90;99.90;;;;;;5072111;28;20487;-70
2021/04/03 01:05:19;;;;;;;14.35;2.58;;;5.90;99.90;;;;;;5071431;28;20051;-70
2021/04/03 01:07:45;;;;;;;11.75;2.28;;;5.90;99.90;;;;;;5073035;28;20029;-71
2021/04/03 01:10:17;;;;;;;29.40;2.97;;;5.90;99.90;;;;;;5069860;28;20085;-71
2021/04/03 01:13:07;;;;;;;18.58;2.72;;;5.90;99.90;;;;;;5069814;28;20037;-71
2021/04/03 01:15:42;;;;;;;14.40;2.30;;;5.90;99.90;;;;;;5069396;28;20086;-73
2021/04/03 01:18:31;;;;;;;14.80;2.60;;;5.90;99.90;;;;;;5068763;28;20013;-72
2021/04/03 01:21:11;;;;;;;17.90;2.55;;;5.90;99.90;;;;;;5070873;28;20074;-71
2021/04/03 01:23:55;;;;;;;23.50;2.88;;;6.00;99.90;;;;;;5070737;28;20027;-71
2021/04/03 01:26:52;;;;;;;16.05;2.80;;;6.00;99.90;;;;;;5066056;28;20020;-71
2021/04/03 01:29:39;;;;;;;16.75;2.97;;;6.00;99.90;;;;;;5070361;28;20049;-71
2021/04/03 01:32:06;;;;;;;22.38;2.65;;;6.00;99.90;;;;;;5071824;28;20032;-70
2021/04/03 01:34:36;;;;;;;21.83;3.22;;;6.10;99.90;;;;;;5071264;28;20027;-72
2021/04/03 01:37:05;;;;;;;17.02;2.88;;;6.00;99.90;;;;;;5069587;28;20040;-71
2021/04/03 01:39:33;;;;;;;19.45;3.20;;;6.10;99.90;;;;;;5070221;28;20128;-72
2021/04/03 01:42:03;;;;;;;22.35;2.95;;;6.10;99.90;;;;;;5066771;28;20025;-72
2021/04/03 01:44:50;;;;;;;18.15;2.55;;;6.10;99.90;;;;;;5072508;28;20032;-70
2021/04/03 01:47:24;;;;;;;25.25;2.80;;;6.10;99.90;;;;;;5069046;28;20094;-71
2021/04/03 01:49:52;;;;;;;16.23;2.92;;;6.10;99.90;;;;;;5073461;28;20020;-72
2021/04/03 01:52:22;;;;;;;13.95;2.75;;;6.10;99.90;;;;;;5073080;28;20047;-71
2021/04/03 01:54:50;;;;;;;31.63;2.97;;;6.20;99.90;;;;;;5070534;28;20070;-72
2021/04/03 01:57:16;;;;;;;23.15;2.40;;;6.20;99.90;;;;;;5070719;28;20644;-70
2021/04/03 01:59:43;;;;;;;20.63;3.85;;;6.20;99.90;;;;;;5070239;28;20225;-70
2021/04/03 02:02:09;;;;;;;21.83;2.92;;;6.20;99.90;;;;;;5072192;28;20093;-70
2021/04/03 02:04:38;;;;;;;18.30;2.90;;;6.20;99.90;;;;;;5072047;28;20036;-71
2021/04/03 02:07:03;;;;;;;23.38;3.80;;;6.30;99.90;;;;;;5070962;28;20028;-71
2021/04/03 02:09:30;;;;;;;16.55;3.60;;;6.30;99.90;;;;;;5072175;28;20085;-70
2021/04/03 02:11:57;;;;;;;23.40;3.42;;;6.30;99.90;;;;;;5072656;28;20023;-71
2021/04/03 02:14:24;;;;;;;26.50;3.28;;;6.30;99.90;;;;;;5072792;28;20055;-70
2021/04/03 02:16:52;;;;;;;13.98;2.60;;;6.30;99.90;;;;;;5072101;28;20028;-71
2021/04/03 02:19:20;;;;;;;24.75;3.70;;;6.40;99.90;;;;;;5072161;28;20029;-72
2021/04/03 02:21:47;;;;;;;16.25;2.60;;;6.40;99.90;;;;;;5071974;28;20029;-70
2021/04/03 02:24:13;;;;;;;25.08;3.63;;;6.40;99.90;;;;;;5072053;28;20056;-73
2021/04/03 02:26:39;;;;;;;17.73;2.35;;;6.40;99.90;;;;;;5070372;28;20459;-70
2021/04/03 02:29:05;;;;;;;15.98;3.35;;;6.40;99.90;;;;;;5070149;28;20027;-71
2021/04/03 02:31:33;;;;;;;17.80;2.67;;;6.40;99.90;;;;;;5068304;28;20644;-69
2021/04/03 02:33:59;;;;;;;22.40;3.00;;;6.40;99.90;;;;;;5069686;28;20051;-71
2021/04/03 02:36:25;;;;;;;24.50;4.07;;;6.40;99.90;;;;;;5069049;28;20066;-72
2021/04/03 02:38:51;;;;;;;28.25;3.03;;;6.40;99.90;;;;;;5061041;28;20017;-71
2021/04/03 02:41:44;;;;;;;19.83;3.67;;;6.40;99.90;;;;;;5064254;28;20031;-71
2021/04/03 02:44:47;;;;;;;16.42;3.08;;;6.50;99.90;;;;;;5072226;28;20103;-71
2021/04/03 02:47:26;;;;;;;17.73;3.22;;;6.40;99.90;;;;;;5029090;28;21019;-72
2021/04/03 02:49:57;;;;;;;24.33;3.45;;;6.50;99.90;;;;;;5065773;28;20046;-70
2021/04/03 02:52:24;;;;;;;27.50;3.22;;;6.50;99.90;;;;;;5070768;28;20368;-72
2021/04/03 02:54:51;;;;;;;22.15;3.33;;;6.50;99.90;;;;;;5071734;28;20028;-71
2021/04/03 02:57:18;;;;;;;20.50;4.32;;;6.40;99.90;;;;;;5071585;28;20025;-71
2021/04/03 02:59:53;;;;;;;18.65;3.47;;;6.40;99.90;;;;;;5070194;28;20115;-73
2021/04/03 03:02:21;;;;;;;22.58;3.33;;;6.50;99.90;;;;;;5070604;28;20021;-72
2021/04/03 03:04:48;;;;;;;25.38;3.70;;;6.40;99.90;;;;;;5069224;28;20099;-71
2021/04/03 03:07:14;;;;;;;20.60;3.30;;;6.40;99.90;;;;;;5071630;28;20024;-70
2021/04/03 03:09:42;;;;;;;15.90;3.28;;;6.40;99.90;;;;;;5070117;28;20039;-71
2021/04/03 03:12:12;;;;;;;31.58;4.25;;;6.40;99.90;;;;;;5066639;28;20446;-72
2021/04/03 03:14:39;;;;;;;11.88;2.33;;;6.50;99.90;;;;;;5070616;28;20052;-72
2021/04/03 03:17:06;;;;;;;20.17;4.05;;;6.40;99.90;;;;;;5070766;28;20020;-70
2021/04/03 03:19:31;;;;;;;33.83;3.58;;;6.40;99.90;;;;;;5071415;28;20024;-72
2021/04/03 03:21:57;;;;;;;19.08;2.85;;;6.40;99.90;;;;;;5068940;28;20032;-71
2021/04/03 03:24:23;;;;;;;19.00;3.17;;;6.40;99.90;;;;;;5071516;28;20028;-72
2021/04/03 03:26:50;;;;;;;21.80;2.80;;;6.40;99.90;;;;;;5078240;28;20404;-69
2021/04/03 03:29:16;;;;;;;26.50;3.17;;;6.40;99.90;;;;;;5074323;28;20032;-72
2021/04/03 03:31:42;;;;;;;17.90;2.42;;;6.50;99.90;;;;;;5072201;28;20029;-72
2021/04/03 03:34:10;;;;;;;21.27;3.10;;;6.40;99.90;;;;;;5070210;28;20021;-72
2021/04/03 03:36:36;;;;;;;29.50;3.35;;;6.40;99.90;;;;;;5068826;28;20050;-71
2021/04/03 03:39:05;;;;;;;32.15;3.00;;;6.40;99.90;;;;;;5070213;28;20016;-74
2021/04/03 03:41:33;;;;;;;20.02;3.35;;;6.40;99.90;;;;;;5069592;28;20051;-71
2021/04/03 03:44:01;;;;;;;21.00;3.20;;;6.40;99.90;;;;;;5069339;28;20097;-70
2021/04/03 03:46:27;;;;;;;24.90;3.60;;;6.40;99.90;;;;;;5069901;28;20021;-73
2021/04/03 03:48:54;;;;;;;20.50;3.72;;;6.50;99.90;;;;;;5068912;28;20391;-72
2021/04/03 03:51:19;;;;;;;26.25;3.35;;;6.40;99.90;;;;;;5070039;28;20488;-70
2021/04/03 03:53:45;;;;;;;17.92;2.85;;;6.40;99.90;;;;;;5067729;28;20024;-72
2021/04/03 03:56:11;;;;;;;32.83;4.35;;;6.40;99.90;;;;;;5064450;28;20480;-72
2021/04/03 03:58:36;;;;;;;18.58;2.45;;;6.40;99.90;;;;;;5069246;28;20036;-72
2021/04/03 04:01:02;;;;;;;17.52;3.00;;;6.40;99.90;;;;;;5068521;28;20032;-72
2021/04/03 04:03:28;;;;;;;26.08;3.50;;;6.40;99.90;;;;;;5069198;28;20042;-73
2021/04/03 04:05:53;;;;;;;25.70;3.22;;;6.40;99.90;;;;;;5067225;28;20424;-70
2021/04/03 04:08:20;;;;;;;31.90;4.43;;;6.40;99.90;;;;;;5054947;28;20029;-69
2021/04/03 04:10:45;;;;;;;27.67;3.67;;;6.40;99.90;;;;;;5067255;28;20028;-72
2021/04/03 04:13:11;;;;;;;19.77;3.35;;;6.40;99.90;;;;;;5068926;28;20020;-72
2021/04/03 04:15:37;;;;;;;24.48;2.80;;;6.50;99.90;;;;;;5066555;28;20027;-72
2021/04/03 04:18:03;;;;;;;25.20;2.95;;;6.50;99.90;;;;;;5067085;28;20070;-71
2021/04/03 04:20:29;;;;;;;21.33;3.03;;;6.50;99.90;;;;;;5069390;28;20071;-72
2021/04/03 04:22:55;;;;;;;29.70;3.65;;;6.50;99.90;;;;;;5069811;28;20583;-70
2021/04/03 04:25:21;;;;;;;21.33;3.95;;;6.40;99.90;;;;;;5068187;28;20096;-71
2021/04/03 04:27:47;;;;;;;25.10;4.00;;;6.50;99.90;;;;;;5068216;28;20021;-71
2021/04/03 04:30:13;;;;;;;19.00;3.17;;;6.40;99.90;;;;;;5068826;28;20028;-72
2021/04/03 04:32:44;;;;;;;18.73;3.47;;;6.50;99.90;;;;;;5065522;28;20067;-70
2021/04/03 04:35:10;;;;;;;22.38;2.83;;;6.50;99.90;;;;;;5069343;28;20021;-73
2021/04/03 04:37:37;;;;;;;16.27;3.10;;;6.50;99.90;;;;;;5069481;28;20048;-71
2021/04/03 04:40:06;;;;;;;16.45;2.83;;;6.50;99.90;;;;;;5071210;28;20024;-72
2021/04/03 04:42:32;;;;;;;22.98;3.80;;;6.50;99.90;;;;;;5068542;28;20048;-72
2021/04/03 04:44:57;;;;;;;20.58;3.42;;;6.50;99.90;;;;;;5068859;28;20032;-72
2021/04/03 04:47:23;;;;;;;17.23;2.83;;;6.50;99.90;;;;;;5068709;28;20149;-71
2021/04/03 04:49:50;;;;;;;21.65;3.47;;;6.50;99.90;;;;;;5047856;28;20025;-71
2021/04/03 04:52:15;;;;;;;20.45;4.13;;;6.50;99.90;;;;;;5061272;28;20025;-69
2021/04/03 04:54:41;;;;;;;19.45;3.13;;;6.50;99.90;;;;;;5068132;28;20610;-73
2021/04/03 04:57:07;;;;;;;29.58;3.05;;;6.50;99.90;;;;;;5069813;28;20110;-68
2021/04/03 04:59:33;;;;;;;24.30;3.90;;;6.50;99.90;;;;;;5069071;28;20119;-71
2021/04/03 05:01:58;;;;;;;15.23;3.38;;;6.50;99.90;;;;;;5073064;28;20502;-71
2021/04/03 05:04:24;;;;;;;25.38;3.85;;;6.50;99.90;;;;;;5069124;28;20050;-71
2021/04/03 05:06:50;;;;;;;29.65;3.80;;;6.40;99.90;;;;;;5068759;28;20055;-72
2021/04/03 05:09:15;;;;;;;21.25;3.75;;;6.40;99.90;;;;;;5066193;28;20557;-74
2021/04/03 05:11:41;;;;;;;15.65;3.60;;;6.40;99.90;;;;;;5067811;28;20021;-72
2021/04/03 05:14:06;;;;;;;25.73;4.25;;;6.30;99.90;;;;;;5071770;28;20055;-73
2021/04/03 05:16:32;;;;;;;29.75;3.78;;;6.30;99.90;;;;;;5071494;28;20143;-72
2021/04/03 05:18:58;;;;;;;28.13;4.25;;;6.30;99.90;;;;;;5071449;28;20857;-70
2021/04/03 05:21:24;;;;;;;37.72;4.97;;;6.30;99.90;;;;;;5071539;28;20103;-71
2021/04/03 05:23:50;;;;;;;31.30;4.40;;;6.30;99.90;;;;;;5072878;28;20563;-71
2021/04/03 05:26:16;;;;;;;29.33;5.35;;;6.20;99.90;;;;;;5071313;28;20036;-70
2021/04/03 05:28:41;;;;;;;33.00;5.20;;;6.20;99.90;;;;;;5071794;28;20694;-71
2021/04/03 05:31:07;;;;;;;30.20;5.03;;;6.20;99.90;;;;;;5072109;28;20576;-71
2021/04/03 05:33:33;;;;;;;35.63;4.43;;;6.10;99.90;;;;;;5070834;28;20103;-70
2021/04/03 05:35:58;;;;;;;44.85;5.25;;;6.10;99.90;;;;;;5072314;28;20027;-71
2021/04/03 05:38:25;;;;;;;27.00;4.82;;;6.10;99.90;;;;;;5071508;28;20029;-72
2021/04/03 05:40:52;;;;;;;23.25;4.53;;;6.00;99.90;;;;;;5071214;28;20040;-70
2021/04/03 05:43:19;;;;;;;28.08;4.00;;;6.00;99.90;;;;;;5070614;28;20436;-69
2021/04/03 05:45:49;;;;;;;38.67;5.20;;;6.00;99.90;;;;;;5070623;28;20028;-71
2021/04/03 05:48:15;;;;;;;32.67;5.60;;;6.00;99.90;;;;;;5071542;28;20017;-69
2021/04/03 05:50:41;;;;;;;30.65;5.82;;;5.90;99.90;;;;;;5070803;28;20035;-71
2021/04/03 05:53:07;;;;;;;27.45;5.45;;;5.90;99.90;;;;;;5072291;28;20054;-70
2021/04/03 05:55:33;;;;;;;35.60;6.18;;;5.90;99.90;;;;;;5071233;28;20029;-71
2021/04/03 05:57:58;;;;;;;28.05;5.38;;;5.90;99.90;;;;;;5070513;28;20017;-71
2021/04/03 06:00:24;;;;;;;36.63;6.05;;;5.90;99.90;;;;;;5070295;28;20048;-70
2021/04/03 06:02:51;;;;;;;26.25;5.53;;;5.90;99.90;;;;;;5071002;28;20681;-70
2021/04/03 06:05:17;;;;;;;39.53;5.90;;;5.90;99.90;;;;;;5070643;28;20042;-71
2021/04/03 06:07:42;;;;;;;35.58;5.70;;;5.90;99.90;;;;;;5072086;28;20021;-72
2021/04/03 06:10:10;;;;;;;27.63;5.63;;;5.90;99.90;;;;;;5068298;28;20416;-70
2021/04/03 06:12:49;;;;;;;38.03;5.50;;;5.90;99.90;;;;;;5068073;28;20072;-70
2021/04/03 06:15:33;;;;;;;46.35;5.60;;;5.90;99.90;;;;;;5068911;28;20024;-72
2021/04/03 06:18:06;;;;;;;30.02;6.28;;;5.90;99.90;;;;;;5068261;28;20051;-71
2021/04/03 06:20:34;;;;;;;34.58;6.32;;;5.90;99.90;;;;;;5071350;28;20104;-71
2021/04/03 06:23:00;;;;;;;39.55;5.53;;;6.00;99.90;;;;;;5074107;28;20020;-72
2021/04/03 06:25:26;;;;;;;34.40;5.75;;;6.00;99.90;;;;;;5074317;28;20737;-72
2021/04/03 06:28:10;;;;;;;38.13;5.55;;;6.10;99.90;;;;;;5072468;28;20028;-71
2021/04/03 06:30:38;;;;;;;40.53;5.55;;;6.10;99.90;;;;;;5075661;28;20033;-70
2021/04/03 06:33:20;;;;;;;41.30;5.97;;;6.10;99.90;;;;;;5075622;28;20028;-72
2021/04/03 06:36:09;;;;;;;39.83;5.77;;;6.10;99.90;;;;;;5075622;28;20052;-73
2021/04/03 06:38:37;;;;;;;36.33;6.35;;;6.10;99.90;;;;;;5069113;28;20021;-71
2021/04/03 06:41:23;;;;;;;32.95;5.28;;;6.10;99.90;;;;;;5072033;28;20106;-71
2021/04/03 06:44:07;;;;;;;39.42;5.97;;;6.10;99.90;;;;;;5067278;28;20035;-71
2021/04/03 06:46:38;;;;;;;37.92;5.80;;;6.20;99.90;;;;;;5068186;28;20024;-72
2021/04/03 06:49:04;;;;;;;34.60;6.00;;;6.10;99.90;;;;;;5069468;28;20032;-70
2021/04/03 06:51:31;;;;;;;37.70;5.43;;;6.20;99.90;;;;;;5072235;28;20028;-72
2021/04/03 06:54:00;;;;;;;34.38;5.43;;;6.30;99.90;;;;;;5070806;28;20021;-71
2021/04/03 06:56:30;;;;;;;33.47;5.70;;;6.30;99.90;;;;;;5070118;28;20045;-69
2021/04/03 06:59:09;;;;;;;40.95;5.68;;;6.30;99.90;;;;;;5070822;28;20012;-70
2021/04/03 07:01:50;;;;;;;37.60;6.47;;;6.30;99.90;;;;;;5070181;28;20031;-70
2021/04/03 07:04:43;;;;;;;32.55;7.32;;;6.50;99.90;;;;;;5068289;28;20024;-70
2021/04/03 07:07:09;;;;;;;;;;;6.50;99.90;;;;;;5069817;28;20111;-71
2021/04/03 07:09:37;;;;;;;34.95;4.85;;;6.50;99.90;;;;;;5070980;28;19916;-71
2021/04/03 07:12:03;;;;;;;40.80;4.47;;;6.60;99.90;;;;;;5073641;28;20475;-72
2021/04/03 07:14:31;;;;;;;25.40;5.30;;;6.60;99.90;;;;;;5074575;28;20527;-70
2021/04/03 07:16:58;;;;;;;24.25;4.65;;;6.60;99.90;;;;;;5074243;28;20048;-73
2021/04/03 07:19:27;;;;;;;35.05;3.92;;;6.60;99.90;;;;;;5074841;28;20052;-70
2021/04/03 07:21:53;;;;;;;29.42;4.65;;;6.70;99.90;;;;;;5072693;28;20013;-73
2021/04/03 07:24:20;;;;;;;29.30;4.65;;;6.80;99.90;;;;;;5071300;28;20117;-73
2021/04/03 07:26:50;;;;;;;29.23;4.22;;;6.80;99.90;;;;;;5079038;28;20032;-73
2021/04/03 07:29:45;;;;;;;28.15;4.60;;;6.90;99.90;;;;;;5072102;28;20606;-70
2021/04/03 07:32:34;;;;;;;26.75;4.40;;;7.10;99.90;;;;;;5072613;28;20032;-73
2021/04/03 07:35:14;;;;;;;28.42;4.63;;;6.90;99.90;;;;;;5069398;28;20036;-72
2021/04/03 07:37:41;;;;;;;27.65;5.05;;;6.90;99.90;;;;;;5072080;28;20020;-71
2021/04/03 07:40:11;;;;;;;27.33;4.60;;;7.00;99.90;;;;;;5072779;28;20024;-72
2021/04/03 07:42:38;;;;;;;43.78;5.18;;;7.00;99.90;;;;;;5074258;28;20023;-72
2021/04/03 07:45:26;;;;;;;36.65;4.90;;;7.20;99.90;;;;;;5073817;28;20032;-74
2021/04/03 07:47:52;;;;;;;31.60;4.88;;;7.30;99.90;;;;;;5069107;28;20036;-74
2021/04/03 07:50:40;;;;;;;25.58;4.30;;;7.20;99.90;;;;;;5071066;28;20024;-71
2021/04/03 07:53:07;;;;;;;30.13;5.93;;;7.30;99.90;;;;;;5072245;28;20027;-71
2021/04/03 07:55:34;;;;;;;19.60;4.45;;;7.20;99.90;;;;;;5071477;28;20070;-73
2021/04/03 07:58:22;;;;;;;35.65;5.00;;;7.30;99.90;;;;;;5071943;28;20028;-72
2021/04/03 08:00:49;;;;;;;32.65;4.93;;;7.30;99.90;;;;;;5071223;28;20028;-74
2021/04/03 08:03:27;;;;;;;42.97;5.53;;;7.30;99.90;;;;;;5071841;28;20036;-75
2021/04/03 08:06:05;;;;;;;23.45;4.15;;;7.30;99.90;;;;;;5060340;28;20727;-73
2021/04/03 08:08:33;;;;;;;31.00;4.13;;;7.30;99.90;;;;;;5065884;28;20040;-73
2021/04/03 08:11:14;;;;;;;31.73;4.72;;;7.30;99.90;;;;;;5073035;28;20027;-74
2021/04/03 08:13:45;;;;;;;31.98;4.07;;;7.40;99.90;;;;;;5073930;28;20102;-73
2021/04/03 08:16:13;;;;;;;25.50;4.85;;;7.40;99.90;;;;;;5080783;28;20035;-73
2021/04/03 08:18:53;;;;;;;31.45;5.03;;;7.30;99.90;;;;;;5076899;28;20021;-72
2021/04/03 08:21:20;;;;;;;35.15;4.93;;;7.40;99.90;;;;;;5073977;28;20017;-74
2021/04/03 08:23:50;;;;;;;37.10;6.38;;;7.60;99.90;;;;;;5071490;28;20052;-72
2021/04/03 08:26:17;;;;;;;36.25;4.28;;;7.60;99.90;;;;;;5071779;28;20040;-73
2021/04/03 08:28:44;;;;;;;29.65;4.93;;;7.60;99.90;;;;;;5066984;28;20048;-74
2021/04/03 08:31:27;;;;;;;29.52;4.57;;;7.50;99.90;;;;;;5069404;28;20098;-74
2021/04/03 08:33:55;;;;;;;32.60;5.32;;;7.50;99.90;;;;;;5069411;28;20099;-73
2021/04/03 08:36:33;;;;;;;39.28;5.13;;;7.60;99.90;;;;;;5065508;28;20052;-73
2021/04/03 08:39:10;;;;;;;28.45;4.88;;;7.60;99.90;;;;;;5069238;28;20025;-72
2021/04/03 08:41:38;;;;;;;33.22;5.03;;;7.70;99.90;;;;;;5067934;28;20024;-70
2021/04/03 08:44:26;;;;;;;29.35;6.32;;;7.80;99.90;;;;;;5071247;28;20031;-72
2021/04/03 08:46:54;;;;;;;25.75;5.60;;;8.00;99.90;;;;;;5075603;28;20134;-71
2021/04/03 08:49:37;;;;;;;31.65;4.35;;;8.10;99.90;;;;;;5073181;28;20097;-69
2021/04/03 08:52:08;;;;;;;30.85;4.30;;;8.20;99.90;;;;;;5072514;28;20032;-71
2021/04/03 08:54:35;;;;;;;30.65;4.43;;;8.10;99.90;;;;;;5078536;28;20013;-75
2021/04/03 08:57:01;;;;;;;37.67;4.68;;;8.40;99.90;;;;;;5073362;28;20016;-70
2021/04/03 08:59:28;;;;;;;27.15;4.25;;;8.60;99.90;;;;;;5074899;28;20082;-72
2021/04/03 09:01:55;;;;;;;22.85;3.70;;;8.80;99.90;;;;;;5074641;28;20098;-71
2021/04/03 09:04:22;;;;;;;33.28;4.45;;;9.10;99.90;;;;;;5074185;28;20323;-72
2021/04/03 09:06:57;;;;;;;30.63;4.53;;;9.30;99.90;;;;;;5071874;28;20012;-71
2021/04/03 09:09:24;;;;;;;31.27;4.45;;;9.40;99.90;;;;;;5070051;28;20455;-74
2021/04/03 09:12:05;;;;;;;25.02;3.53;;;9.40;99.90;;;;;;5070839;28;20387;-71
2021/04/03 09:14:39;;;;;;;26.88;4.55;;;9.20;99.90;;;;;;5071382;28;20438;-71
2021/04/03 09:17:21;;;;;;;23.70;4.40;;;9.20;99.90;;;;;;5071547;28;20484;-72
2021/04/03 09:19:47;;;;;;;;;;;9.50;99.90;;;;;;5070963;28;20032;-74
2021/04/03 09:22:14;;;;;;;27.73;4.90;;;9.60;99.90;;;;;;5070203;28;19948;-70
2021/04/03 09:24:45;;;;;;;32.95;3.97;;;9.80;99.90;;;;;;5070455;28;20020;-73
2021/04/03 09:27:18;;;;;;;24.63;4.25;;;9.30;99.90;;;;;;5069643;28;20190;-73
2021/04/03 09:29:56;;;;;;;22.17;4.45;;;9.30;99.90;;;;;;5067272;28;20028;-73
2021/04/03 09:32:22;;;;;;;29.55;3.78;;;9.30;99.90;;;;;;5069111;28;20016;-72
2021/04/03 09:34:48;;;;;;;28.05;5.45;;;9.50;99.90;;;;;;5070008;28;20385;-72
2021/04/03 09:37:20;;;;;;;35.20;5.50;;;9.40;99.90;;;;;;5072403;28;20021;-71
2021/04/03 09:39:54;;;;;;;28.55;4.25;;;9.10;99.90;;;;;;5067312;28;20021;-71
2021/04/03 09:42:25;;;;;;;23.98;4.60;;;8.90;99.90;;;;;;5069764;28;20033;-72
2021/04/03 09:44:52;;;;;;;29.98;4.70;;;9.00;99.90;;;;;;5071600;28;20020;-75
2021/04/03 09:47:18;;;;;;;21.50;3.80;;;9.20;99.90;;;;;;5068395;28;20102;-73
2021/04/03 09:49:45;;;;;;;23.13;4.20;;;9.70;99.90;;;;;;5066741;28;20029;-75
2021/04/03 09:52:13;;;;;;;18.50;3.50;;;9.70;99.90;;;;;;5070012;28;20020;-72
2021/04/03 09:54:39;;;;;;;28.23;4.32;;;9.60;99.90;;;;;;5066097;28;20110;-73
2021/04/03 09:57:05;;;;;;;24.20;4.68;;;9.60;99.90;;;;;;5060916;28;20032;-74
2021/04/03 09:59:31;;;;;;;31.77;5.40;;;9.80;99.90;;;;;;5066037;28;20055;-75
2021/04/03 10:01:58;;;;;;;20.15;4.15;;;9.90;99.90;;;;;;5067493;28;20017;-72
2021/04/03 10:04:24;;;;;;;24.80;3.58;;;9.70;99.90;;;;;;5081396;28;20425;-74
2021/04/03 10:06:51;;;;;;;23.48;3.60;;;9.60;99.90;;;;;;5068553;28;20144;-70
2021/04/03 10:09:17;;;;;;;25.33;3.95;;;9.40;99.90;;;;;;5066705;28;20113;-72
2021/04/03 10:11:43;;;;;;;22.00;3.78;;;9.30;99.90;;;;;;5060438;28;20142;-74
2021/04/03 10:14:09;;;;;;;20.45;4.68;;;9.40;99.90;;;;;;5082840;28;20032;-71
2021/04/03 10:16:35;;;;;;;29.38;4.38;;;9.50;99.90;;;;;;5101074;28;20028;-72
2021/04/03 10:19:00;;;;;;;24.15;3.78;;;9.40;99.90;;;;;;5085781;28;20092;-74
2021/04/03 10:21:26;;;;;;;23.30;4.53;;;9.30;99.90;;;;;;5088520;28;20064;-74
2021/04/03 10:23:52;;;;;;;21.35;3.45;;;9.50;99.90;;;;;;5085655;28;20506;-75
2021/04/03 10:26:18;;;;;;;24.30;4.40;;;9.70;99.90;;;;;;5086058;28;20012;-73
2021/04/03 10:28:44;;;;;;;25.17;3.85;;;9.80;99.90;;;;;;5087848;28;20043;-76
2021/04/03 10:31:11;;;;;;;20.98;4.43;;;10.20;99.90;;;;;;5078512;28;20077;-74
2021/04/03 10:33:38;;;;;;;17.85;3.88;;;10.50;99.90;;;;;;5079848;28;20037;-73
2021/04/03 10:36:05;;;;;;;30.08;4.75;;;10.90;99.90;;;;;;5074272;28;20074;-73
2021/04/03 10:38:30;;;;;;;20.85;4.07;;;10.40;99.90;;;;;;5066944;28;20059;-71
2021/04/03 10:40:56;;;;;;;20.58;4.32;;;9.60;99.90;;;;;;5067492;28;20016;-72
2021/04/03 10:43:22;;;;;;;37.22;4.72;;;9.40;99.90;;;;;;5070476;28;20017;-73
2021/04/03 10:45:47;;;;;;;23.80;3.92;;;9.30;99.90;;;;;;5068794;28;20028;-72
2021/04/03 10:48:14;;;;;;;27.20;4.20;;;9.80;99.90;;;;;;5070765;28;20056;-72
2021/04/03 10:50:40;;;;;;;20.48;3.30;;;10.00;99.90;;;;;;5067935;28;20024;-74
2021/04/03 10:53:06;;;;;;;22.70;4.47;;;9.90;99.90;;;;;;5065633;28;20029;-73
2021/04/03 10:55:32;;;;;;;16.88;3.40;;;10.10;99.90;;;;;;5066791;28;20085;-72
2021/04/03 10:57:58;;;;;;;24.48;3.55;;;10.20;99.90;;;;;;5064806;28;20009;-72
2021/04/03 11:00:24;;;;;;;20.80;5.10;;;9.90;99.90;;;;;;5070086;28;20039;-72
2021/04/03 11:02:50;;;;;;;23.23;4.45;;;9.80;99.90;;;;;;5065259;28;20039;-70
2021/04/03 11:05:15;;;;;;;27.30;4.50;;;9.50;99.90;;;;;;5067082;28;20127;-73
2021/04/03 11:07:41;;;;;;;24.35;3.78;;;9.80;99.90;;;;;;5066461;28;20035;-70
2021/04/03 11:10:07;;;;;;;21.10;4.75;;;10.30;99.90;;;;;;5070587;28;20028;-75
2021/04/03 11:12:34;;;;;;;22.10;3.28;;;10.50;99.90;;;;;;5076137;28;20016;-73
2021/04/03 11:14:59;;;;;;;24.77;3.90;;;10.70;99.90;;;;;;5079562;28;20524;-71
2021/04/03 11:17:25;;;;;;;19.77;4.55;;;10.60;99.90;;;;;;5079992;28;20016;-75
2021/04/03 11:19:51;;;;;;;21.08;4.72;;;10.60;99.90;;;;;;5079026;28;20024;-76
2021/04/03 11:22:16;;;;;;;23.60;4.35;;;10.90;99.90;;;;;;5076329;28;20189;-73
2021/04/03 11:24:43;;;;;;;18.30;3.63;;;11.00;99.90;;;;;;5074715;28;20388;-74
2021/04/03 11:27:09;;;;;;;20.23;3.65;;;11.20;99.90;;;;;;5074962;28;20024;-77
2021/04/03 11:29:34;;;;;;;20.50;3.28;;;11.30;99.90;;;;;;5075206;28;20086;-77
2021/04/03 11:32:00;;;;;;;27.60;4.43;;;11.60;99.00;;;;;;5071961;28;20016;-74
2021/04/03 11:34:26;;;;;;;27.65;5.35;;;11.20;98.50;;;;;;5071797;28;20033;-75
2021/04/03 11:36:52;;;;;;;18.25;3.63;;;10.80;99.20;;;;;;5071183;28;20020;-76
2021/04/03 11:39:17;;;;;;;31.50;5.05;;;11.10;99.80;;;;;;5074079;28;20035;-72
2021/04/03 11:41:43;;;;;;;20.30;3.97;;;11.80;99.40;;;;;;5071296;28;20373;-75
2021/04/03 11:44:09;;;;;;;23.45;4.82;;;11.40;97.20;;;;;;5070446;28;20036;-75
2021/04/03 11:46:35;;;;;;;16.40;3.28;;;10.90;97.70;;;;;;5073653;28;20027;-76
2021/04/03 11:49:01;;;;;;;23.58;3.70;;;11.30;97.90;;;;;;5069679;28;20017;-73
2021/04/03 11:51:26;;;;;;;22.95;2.95;;;12.10;96.00;;;;;;5073037;28;20064;-73
2021/04/03 11:53:52;;;;;;;16.05;4.65;;;12.00;95.70;;;;;;5071752;28;20480;-71
2021/04/03 11:56:18;;;;;;;14.27;3.60;;;10.80;96.30;;;;;;5068951;28;20021;-75
2021/04/03 11:58:43;;;;;;;20.35;3.63;;;10.90;97.20;;;;;;5072707;28;20055;-74
2021/04/03 12:01:10;;;;;;;18.23;3.58;;;11.40;96.00;;;;;;5062426;28;20047;-74
2021/04/03 12:03:35;;;;;;;17.30;3.95;;;12.00;95.30;;;;;;5074575;28;20084;-75
2021/04/03 12:06:01;;;;;;;13.80;3.50;;;12.30;92.50;;;;;;5074035;28;20063;-75
2021/04/03 12:08:28;;;;;;;13.45;2.63;;;11.00;93.20;;;;;;5073277;28;20035;-75
2021/04/03 12:10:53;;;;;;;21.35;3.95;;;10.80;94.30;;;;;;5072897;28;20448;-74
2021/04/03 12:13:19;;;;;;;17.23;3.45;;;11.30;94.80;;;;;;5074255;28;20029;-73
2021/04/03 12:15:46;;;;;;;28.55;4.88;;;11.70;93.90;;;;;;5072675;28;20105;-74
2021/04/03 12:18:11;;;;;;;16.50;3.65;;;12.20;92.80;;;;;;5071376;28;20044;-73
2021/04/03 12:20:37;;;;;;;19.98;3.75;;;11.20;94.30;;;;;;5075018;28;20534;-77
2021/04/03 12:23:03;;;;;;;15.15;2.97;;;11.50;94.40;;;;;;5072421;28;20035;-75
2021/04/03 12:25:29;;;;;;;21.73;3.70;;;12.00;94.30;;;;;;5068201;28;20028;-78
2021/04/03 12:27:55;;;;;;;21.25;4.22;;;11.70;94.00;;;;;;5073148;28;20579;-74
2021/04/03 12:30:21;;;;;;;19.52;3.85;;;10.70;96.10;;;;;;5074222;28;20055;-73
2021/04/03 12:32:47;;;;;;;26.13;4.35;;;10.90;97.00;;;;;;5071952;28;20029;-74
2021/04/03 12:35:13;;;;;;;16.73;3.60;;;10.60;97.30;;;;;;5072840;28;20025;-75
2021/04/03 12:37:39;;;;;;;23.98;4.40;;;10.70;97.20;;;;;;5074952;28;20013;-75
2021/04/03 12:40:06;;;;;;;18.30;3.30;;;10.70;96.80;;;;;;5076278;28;20400;-76
2021/04/03 12:42:33;;;;;;;18.80;3.92;;;11.20;96.40;;;;;;5069706;28;20087;-73
2021/04/03 12:44:59;;;;;;;14.70;3.13;;;11.60;95.30;;;;;;5073111;28;20031;-74
2021/04/03 12:47:25;;;;;;;23.15;3.88;;;11.40;95.40;;;;;;5067872;28;20090;-76
2021/04/03 12:49:51;;;;;;;26.30;3.60;;;11.50;93.80;;;;;;5071045;28;20560;-74
2021/04/03 12:52:17;;;;;;;17.20;3.42;;;11.60;92.60;;;;;;5072306;28;20136;-75
2021/04/03 12:54:43;;;;;;;16.02;3.38;;;11.40;92.20;;;;;;5065968;28;20076;-74